Time;durP1;ratioP1;P1;durP2;ratioP2;P2;SDS_P1;SDS_P2;PMS_P1;PMS_P2;Temp;Humidity;BMP_temperature;BMP_pressure;BME280_temperature;BME280_humidity;BME280_pressure;Samples;Min_cycle;Max_cycle;Signal;HPM_P1;HPM_P2
2021/12/09 04:19:04;;;;;;;;;;;4.90;99.90;;;;;;5114466;27;19912;-89
2021/12/09 14:54:02;;;;;;;;;;;4.90;99.90;;;;;;5100613;27;20392;-90
2021/12/09 14:56:30;;;;;;;;;;;4.90;99.90;;;;;;5112009;28;20322;-89
2021/12/09 14:59:14;;;;;;;;;;;5.00;99.90;;;;;;5112285;28;19914;-90
2021/12/09 15:12:50;;;;;;;;;;;5.30;99.90;;;;;;5091649;27;20382;-92
2021/12/09 15:15:21;;;;;;;;;;;5.30;99.90;;;;;;5124396;28;20330;-94
2021/12/09 15:17:53;;;;;;;;;;;5.30;99.90;;;;;;5081658;28;19909;-94
2021/12/09 15:20:18;;;;;;;;;;;5.40;99.90;;;;;;5100439;28;20365;-93
2021/12/09 15:22:45;;;;;;;;;;;5.50;99.90;;;;;;5096578;28;19913;-93
2021/12/09 15:26:20;;;;;;;;;;;5.60;99.90;;;;;;5071575;28;19912;-93
2021/12/09 15:28:46;;;;;;;;;;;5.70;99.90;;;;;;5082576;28;20358;-94
2021/12/09 15:31:20;;;;;;;;;;;5.80;99.90;;;;;;5036164;28;20376;-95
2021/12/09 15:33:48;;;;;;;;;;;5.90;99.90;;;;;;5038487;28;20370;-94
2021/12/09 15:36:23;;;;;;;;;;;5.90;99.90;;;;;;5050896;28;20004;-94
2021/12/09 15:39:09;;;;;;;;;;;6.00;99.90;;;;;;5083646;28;19916;-95
2021/12/09 15:41:39;;;;;;;;;;;6.00;99.90;;;;;;5056945;28;20391;-93
2021/12/09 15:44:13;;;;;;;;;;;6.10;99.90;;;;;;5059049;28;19909;-92
2021/12/09 15:46:43;;;;;;;;;;;6.10;99.90;;;;;;5054949;28;19999;-92
2021/12/09 15:49:10;;;;;;;;;;;6.20;99.90;;;;;;5056430;28;19909;-94
2021/12/09 15:51:38;;;;;;;;;;;6.20;99.90;;;;;;5048849;28;19913;-96
2021/12/09 15:54:05;;;;;;;;;;;6.30;99.90;;;;;;5049961;28;19952;-92
2021/12/09 15:56:45;;;;;;;;;;;6.30;99.90;;;;;;5055243;28;19913;-88
2021/12/09 15:59:13;;;;;;;;;;;6.20;99.90;;;;;;5056609;28;20400;-87
2021/12/09 16:01:40;;;;;;;;;;;6.30;99.90;;;;;;5049161;28;19963;-90
2021/12/09 16:04:06;;;;;;;;;;;6.30;99.90;;;;;;5050644;28;19909;-88
2021/12/09 16:06:32;;;;;;;;;;;6.30;99.90;;;;;;5049467;28;19916;-88
2021/12/09 16:08:57;;;;;;;;;;;6.30;99.90;;;;;;5053799;28;19913;-88
2021/12/09 16:11:23;;;;;;;;;;;6.40;99.90;;;;;;5050482;28;19953;-89
2021/12/09 16:13:55;;;;;;;;;;;6.40;99.90;;;;;;5050654;28;19909;-88
2021/12/09 16:16:21;;;;;;;;;;;6.40;99.90;;;;;;5032854;28;19928;-91
2021/12/09 16:18:48;;;;;;;;;;;6.40;99.90;;;;;;5039032;28;19913;-90
2021/12/09 16:21:16;;;;;;;;;;;6.40;99.90;;;;;;5047617;28;19920;-91
2021/12/09 16:23:45;;;;;;;;;;;6.40;99.90;;;;;;5038439;28;19952;-89
2021/12/09 16:26:11;;;;;;;;;;;6.40;99.90;;;;;;5040940;28;20014;-89
2021/12/09 16:28:37;;;;;;;;;;;6.40;99.90;;;;;;5044596;28;19976;-93
2021/12/09 16:31:04;;;;;;;;;;;6.40;99.90;;;;;;5030827;28;20345;-93
2021/12/09 16:33:29;;;;;;;;;;;6.40;99.90;;;;;;5034076;28;20265;-92
2021/12/09 16:35:55;;;;;;;;;;;6.40;99.90;;;;;;5035825;28;19920;-93
2021/12/09 16:38:25;;;;;;;;;;;6.40;99.90;;;;;;5029669;28;19987;-92
2021/12/09 16:40:51;;;;;;;;;;;6.40;99.90;;;;;;5034532;28;19913;-93
2021/12/09 16:43:18;;;;;;;;;;;6.40;99.90;;;;;;5034828;28;19923;-93
2021/12/09 16:45:44;;;;;;;;;;;6.40;99.90;;;;;;5034590;28;19971;-94
2021/12/09 16:48:11;;;;;;;;;;;6.40;99.90;;;;;;5035413;28;20316;-93
2021/12/09 16:50:38;;;;;;;;;;;6.40;99.90;;;;;;5035485;28;19913;-92
2021/12/09 16:53:12;;;;;;;;;;;6.40;99.90;;;;;;5035465;28;19909;-92
2021/12/09 17:00:18;;;;;;;;;;;6.40;99.90;;;;;;5145618;27;19912;-92
2021/12/09 17:02:45;;;;;;;;;;;6.40;99.90;;;;;;5145192;27;19912;-92
2021/12/09 17:05:11;;;;;;;;;;;6.40;99.90;;;;;;5110677;28;19995;-91
2021/12/09 17:07:37;;;;;;;;;;;6.30;99.90;;;;;;5110661;28;20051;-93
2021/12/09 17:10:05;;;;;;;;;;;6.30;99.90;;;;;;5121029;28;19915;-92
2021/12/09 19:32:22;;;;;;;;;;;5.30;99.90;;;;;;5133496;27;19934;-92
2021/12/09 19:34:48;;;;;;;;;;;5.30;99.90;;;;;;5132672;28;19918;-92
2021/12/09 19:37:14;;;;;;;;;;;5.30;99.90;;;;;;5132590;28;19990;-91
2021/12/09 19:51:51;;;;;;;;;;;5.60;99.90;;;;;;5112320;27;19912;-93
2021/12/09 19:54:17;;;;;;;;;;;5.60;99.90;;;;;;5145154;27;20291;-92
2021/12/09 19:56:43;;;;;;;;;;;5.60;99.90;;;;;;5093730;28;19913;-93
2021/12/09 19:59:10;;;;;;;;;;;5.70;99.90;;;;;;5090624;28;20296;-93
2021/12/09 20:01:36;;;;;;;;;;;5.80;99.90;;;;;;5096238;28;19938;-92
